createdAt,value
2022-10-10T00:01:14.357Z,17.96
2022-10-10T00:03:41.910Z,17.88
2022-10-10T00:06:09.701Z,17.97
2022-10-10T00:08:36.645Z,17.83
2022-10-10T00:11:04.478Z,17.85
2022-10-10T00:13:31.774Z,17.75
2022-10-10T00:15:58.776Z,17.83
2022-10-10T00:18:25.808Z,17.93
2022-10-10T00:20:53.664Z,17.96
2022-10-10T00:23:20.862Z,17.87
2022-10-10T00:25:48.188Z,17.93
2022-10-10T00:28:15.286Z,17.79
2022-10-10T00:30:42.395Z,17.80
2022-10-10T00:33:09.132Z,17.78
2022-10-10T00:35:36.481Z,17.62
2022-10-10T00:38:04.152Z,17.64
2022-10-10T00:40:31.624Z,17.38
2022-10-10T00:42:58.924Z,17.41
2022-10-10T00:45:28.479Z,17.48
2022-10-10T00:48:07.474Z,17.53
2022-10-10T00:50:40.866Z,17.72
2022-10-10T00:53:09.904Z,17.57
2022-10-10T00:55:37.599Z,17.54
2022-10-10T00:58:06.703Z,17.37
2022-10-10T01:00:34.564Z,17.26
2022-10-10T01:03:01.637Z,17.05
2022-10-10T01:05:29.027Z,17.22
2022-10-10T01:08:14.353Z,17.21
2022-10-10T01:10:59.323Z,17.21
2022-10-10T01:14:00.964Z,17.29
2022-10-10T01:16:54.522Z,17.22
2022-10-10T01:19:36.935Z,17.21
2022-10-10T01:22:25.949Z,17.13
2022-10-10T01:25:06.768Z,16.98
2022-10-10T01:27:43.424Z,17.11
2022-10-10T01:30:14.580Z,16.92
2022-10-10T01:32:49.852Z,16.87
2022-10-10T01:35:48.969Z,16.92
2022-10-10T01:38:24.603Z,17.09
2022-10-10T01:40:58.944Z,16.95
2022-10-10T01:43:26.568Z,16.81
2022-10-10T01:45:54.605Z,16.54
2022-10-10T01:48:30.189Z,16.65
2022-10-10T01:51:15.421Z,16.48
2022-10-10T01:54:05.430Z,16.66
2022-10-10T01:57:09.526Z,16.66
2022-10-10T02:00:10.804Z,16.56
2022-10-10T02:03:09.002Z,16.72
2022-10-10T02:05:46.819Z,16.75
2022-10-10T02:08:27.137Z,16.71
2022-10-10T02:10:58.475Z,16.62
2022-10-10T02:13:33.175Z,16.55
2022-10-10T02:16:02.796Z,16.78
2022-10-10T02:18:35.332Z,16.72
2022-10-10T02:21:04.753Z,16.63
2022-10-10T02:23:32.015Z,16.65
2022-10-10T02:25:59.192Z,16.77
2022-10-10T02:28:39.942Z,16.81
2022-10-10T02:31:16.379Z,16.80
2022-10-10T02:33:56.620Z,16.68
2022-10-10T02:36:25.857Z,16.65
2022-10-10T02:38:53.694Z,16.83
2022-10-10T02:41:22.229Z,16.78
2022-10-10T02:43:51.000Z,16.63
2022-10-10T02:46:19.733Z,16.73
2022-10-10T02:48:46.673Z,16.38
2022-10-10T02:51:16.073Z,16.24
2022-10-10T02:53:42.907Z,16.25
2022-10-10T02:56:11.114Z,16.39
2022-10-10T02:58:37.836Z,16.27
2022-10-10T03:01:07.283Z,16.28
2022-10-10T03:03:34.163Z,16.41
2022-10-10T03:06:02.224Z,16.44
2022-10-10T03:08:28.981Z,16.54
2022-10-10T03:11:02.370Z,16.54
2022-10-10T03:13:29.337Z,16.41
2022-10-10T03:15:56.074Z,16.35
2022-10-10T03:18:23.648Z,16.33
2022-10-10T03:20:52.501Z,16.38
2022-10-10T03:23:20.117Z,16.28
2022-10-10T03:25:47.102Z,16.41
2022-10-10T03:28:15.168Z,16.49
2022-10-10T03:30:42.053Z,16.54
2022-10-10T03:33:09.402Z,16.32
2022-10-10T03:35:36.862Z,16.27
2022-10-10T03:38:04.448Z,16.23
2022-10-10T03:40:31.461Z,16.08
2022-10-10T03:42:58.234Z,16.27
2022-10-10T03:45:25.419Z,16.31
2022-10-10T03:47:52.186Z,16.24
2022-10-10T03:50:19.049Z,16.02
2022-10-10T03:52:45.818Z,16.15
2022-10-10T03:55:12.585Z,16.32
2022-10-10T03:57:39.631Z,16.37
2022-10-10T04:00:07.115Z,16.47
2022-10-10T04:02:33.941Z,16.17
2022-10-10T04:05:00.864Z,16.31
2022-10-10T04:07:28.299Z,16.22
2022-10-10T04:09:55.438Z,16.32
2022-10-10T04:12:22.432Z,16.04
2022-10-10T04:14:49.476Z,16.16
2022-10-10T04:17:16.235Z,15.88
2022-10-10T04:19:43.101Z,16.11
2022-10-10T04:22:11.277Z,16.13
2022-10-10T04:24:38.531Z,16.20
2022-10-10T04:27:05.308Z,16.12
2022-10-10T04:29:32.338Z,15.94
2022-10-10T04:31:59.053Z,15.82
2022-10-10T04:34:26.105Z,15.66
2022-10-10T04:36:53.295Z,15.99
2022-10-10T04:39:20.517Z,15.40
2022-10-10T04:41:50.639Z,15.30
2022-10-10T04:44:18.623Z,15.34
2022-10-10T04:46:46.262Z,15.47
2022-10-10T04:49:12.994Z,15.64
2022-10-10T04:51:39.679Z,15.37
2022-10-10T04:54:06.664Z,16.06
2022-10-10T04:56:33.458Z,16.04
2022-10-10T04:59:00.346Z,15.74
2022-10-10T05:01:27.125Z,16.02
2022-10-10T05:03:54.257Z,16.17
2022-10-10T05:06:20.916Z,16.40
2022-10-10T05:08:53.569Z,16.43
2022-10-10T05:11:20.582Z,16.30
2022-10-10T05:13:49.898Z,16.35
2022-10-10T05:16:18.139Z,16.48
2022-10-10T05:18:44.986Z,16.43
2022-10-10T05:21:12.020Z,16.35
2022-10-10T05:23:41.352Z,16.41
2022-10-10T05:26:09.387Z,15.94
2022-10-10T05:28:36.757Z,16.23
2022-10-10T05:31:04.780Z,15.98
2022-10-10T05:33:33.096Z,15.93
2022-10-10T05:36:08.099Z,16.31
2022-10-10T05:38:35.347Z,16.06
2022-10-10T05:41:02.477Z,16.60
2022-10-10T05:43:29.455Z,16.57
2022-10-10T05:45:57.532Z,16.66
2022-10-10T05:48:24.677Z,16.75
2022-10-10T05:50:54.556Z,16.57
2022-10-10T05:53:25.824Z,16.59
2022-10-10T05:55:52.727Z,16.82
2022-10-10T05:58:19.924Z,16.84
2022-10-10T06:00:48.291Z,16.80
2022-10-10T06:03:17.148Z,16.91
2022-10-10T06:05:45.988Z,16.99
2022-10-10T06:08:12.997Z,16.68
2022-10-10T06:10:42.968Z,16.90
2022-10-10T06:13:11.391Z,16.58
2022-10-10T06:15:38.719Z,16.56
2022-10-10T06:18:06.511Z,16.29
2022-10-10T06:20:41.156Z,16.98
2022-10-10T06:23:08.998Z,17.04
2022-10-10T06:25:41.212Z,17.10
2022-10-10T06:28:09.372Z,17.74
2022-10-10T06:30:43.429Z,17.12
2022-10-10T06:33:11.731Z,17.35
2022-10-10T06:35:42.932Z,17.77
2022-10-10T06:38:10.648Z,17.54
2022-10-10T06:40:37.658Z,17.39
2022-10-10T06:43:04.760Z,17.43
2022-10-10T06:45:36.330Z,17.03
2022-10-10T06:48:03.396Z,17.67
2022-10-10T06:50:30.291Z,17.61
2022-10-10T06:52:57.056Z,17.37
2022-10-10T06:55:23.880Z,17.27
2022-10-10T06:57:51.250Z,17.39
2022-10-10T07:00:18.417Z,18.27
2022-10-10T07:02:45.321Z,18.49
2022-10-10T07:05:13.869Z,18.34
2022-10-10T07:07:40.801Z,18.40
2022-10-10T07:10:10.142Z,18.62
2022-10-10T07:12:44.244Z,18.01
2022-10-10T07:15:12.330Z,18.45
2022-10-10T07:17:39.298Z,18.07
2022-10-10T07:20:06.638Z,18.81
2022-10-10T07:22:35.187Z,18.86
2022-10-10T07:25:02.004Z,19.00
2022-10-10T07:27:28.834Z,18.84
2022-10-10T07:29:55.668Z,18.65
2022-10-10T07:32:22.551Z,18.91
2022-10-10T07:34:58.526Z,19.13
2022-10-10T07:37:27.563Z,18.95
2022-10-10T07:39:54.940Z,19.59
2022-10-10T07:42:22.131Z,19.47
2022-10-10T07:44:48.892Z,19.50
2022-10-10T07:47:15.673Z,19.81
2022-10-10T07:49:42.423Z,19.64
2022-10-10T07:52:09.293Z,19.58
2022-10-10T07:54:36.065Z,19.53
2022-10-10T07:57:02.971Z,20.04
2022-10-10T07:59:29.997Z,19.58
2022-10-10T08:01:56.957Z,19.99
2022-10-10T08:04:23.987Z,20.29
2022-10-10T08:06:50.835Z,19.91
2022-10-10T08:09:17.923Z,19.88
2022-10-10T08:11:44.845Z,20.27
2022-10-10T08:14:11.726Z,20.22
2022-10-10T08:16:38.484Z,20.61
2022-10-10T08:19:05.866Z,20.68
2022-10-10T08:21:32.793Z,21.04
2022-10-10T08:24:03.033Z,20.80
2022-10-10T08:26:30.110Z,21.11
2022-10-10T08:28:56.907Z,20.67
2022-10-10T08:31:23.978Z,21.02
2022-10-10T08:33:51.992Z,21.17
2022-10-10T08:36:21.965Z,21.68
2022-10-10T08:38:49.036Z,21.43
2022-10-10T08:41:36.515Z,21.93
2022-10-10T08:44:28.133Z,21.58
2022-10-10T08:47:02.708Z,21.69
2022-10-10T08:49:38.526Z,21.62
2022-10-10T08:52:23.497Z,21.60
2022-10-10T08:54:58.166Z,22.02
2022-10-10T08:57:48.791Z,21.62
2022-10-10T09:00:21.225Z,22.32
2022-10-10T09:02:59.039Z,22.10
2022-10-10T09:05:48.945Z,22.64
2022-10-10T09:08:27.709Z,22.68
2022-10-10T09:11:24.172Z,22.61
2022-10-10T09:14:09.379Z,23.04
2022-10-10T09:16:47.168Z,22.93
2022-10-10T09:19:24.454Z,23.19
2022-10-10T09:21:57.267Z,22.89
2022-10-10T09:24:34.821Z,22.83
2022-10-10T09:27:04.787Z,23.04
2022-10-10T09:30:17.983Z,23.03
2022-10-10T09:32:55.094Z,22.52
2022-10-10T09:35:29.226Z,22.39
2022-10-10T09:38:21.117Z,22.73
2022-10-10T09:41:11.406Z,23.30
2022-10-10T09:43:39.727Z,23.36
2022-10-10T09:46:07.662Z,23.01
2022-10-10T09:48:41.140Z,23.06
2022-10-10T09:51:14.199Z,23.40
2022-10-10T09:53:42.242Z,23.34
2022-10-10T09:56:34.972Z,23.32
2022-10-10T09:59:02.954Z,23.62
2022-10-10T10:01:35.187Z,23.43
2022-10-10T10:04:29.791Z,23.54
2022-10-10T10:07:26.008Z,23.21
2022-10-10T10:09:56.244Z,23.41
2022-10-10T10:12:27.963Z,23.45
2022-10-10T10:15:03.663Z,23.66
2022-10-10T10:17:31.882Z,23.75
2022-10-10T10:19:58.914Z,23.20
2022-10-10T10:22:35.573Z,23.55
2022-10-10T10:25:32.060Z,23.68
2022-10-10T10:28:11.027Z,23.87
2022-10-10T10:30:42.565Z,23.83
2022-10-10T10:33:37.613Z,23.64
2022-10-10T10:36:34.529Z,23.58
2022-10-10T10:39:13.271Z,24.12
2022-10-10T10:42:18.476Z,24.14
2022-10-10T10:44:57.217Z,23.85
2022-10-10T10:47:42.216Z,24.35
2022-10-10T10:50:43.621Z,23.96
2022-10-10T10:53:16.351Z,24.10
2022-10-10T10:56:12.414Z,24.21
2022-10-10T10:59:34.461Z,23.90
2022-10-10T11:02:26.065Z,23.95
2022-10-10T11:05:31.155Z,23.64
2022-10-10T11:08:37.533Z,23.89
2022-10-10T11:11:21.612Z,23.75
2022-10-10T11:14:03.994Z,23.38
2022-10-10T11:16:55.190Z,23.89
2022-10-10T11:19:45.912Z,23.93
2022-10-10T11:22:19.826Z,23.80
2022-10-10T11:25:01.748Z,23.43
2022-10-10T11:27:52.973Z,23.67
2022-10-10T11:30:26.632Z,23.86
2022-10-10T11:33:14.401Z,23.75
2022-10-10T11:35:54.551Z,23.74
2022-10-10T11:38:46.029Z,23.85
2022-10-10T11:41:16.084Z,23.54
2022-10-10T11:43:51.724Z,23.41
2022-10-10T11:46:56.611Z,23.40
2022-10-10T11:49:52.445Z,23.90
2022-10-10T11:52:39.698Z,23.55
2022-10-10T11:55:26.753Z,23.42
2022-10-10T11:58:17.636Z,23.68
2022-10-10T12:00:50.227Z,23.93
2022-10-10T12:03:17.005Z,23.79
2022-10-10T12:06:00.998Z,24.13
2022-10-10T12:08:46.086Z,24.13
2022-10-10T12:11:21.407Z,23.84
2022-10-10T12:13:55.297Z,23.68
2022-10-10T12:16:30.565Z,23.68
2022-10-10T12:19:06.936Z,23.89
2022-10-10T12:21:53.337Z,23.66
2022-10-10T12:24:20.567Z,23.80
2022-10-10T12:26:57.308Z,24.33
2022-10-10T12:30:09.404Z,24.80
2022-10-10T12:32:36.172Z,24.67
2022-10-10T12:35:02.911Z,24.73
2022-10-10T12:37:31.318Z,24.44
2022-10-10T12:40:07.256Z,25.48
2022-10-10T12:42:39.401Z,25.82
2022-10-10T12:45:29.816Z,26.11
2022-10-10T12:48:06.906Z,25.88
2022-10-10T12:50:41.951Z,26.12
2022-10-10T12:53:19.343Z,26.22
2022-10-10T12:55:48.887Z,25.96
2022-10-10T12:58:38.431Z,25.96
2022-10-10T13:01:27.118Z,26.47
2022-10-10T13:03:55.849Z,26.52
2022-10-10T13:06:28.728Z,26.42
2022-10-10T13:08:56.421Z,26.76
2022-10-10T13:11:23.558Z,27.28
2022-10-10T13:13:55.669Z,26.12
2022-10-10T13:16:32.809Z,26.05
2022-10-10T13:19:02.118Z,25.99
2022-10-10T13:21:34.278Z,25.83
2022-10-10T13:24:04.540Z,25.74
2022-10-10T13:26:34.496Z,25.54
2022-10-10T13:29:19.130Z,25.63
2022-10-10T13:31:46.345Z,25.35
2022-10-10T13:34:22.228Z,25.48
2022-10-10T13:36:55.694Z,25.49
2022-10-10T13:39:23.037Z,25.48
2022-10-10T13:41:52.352Z,24.95
2022-10-10T13:44:31.657Z,25.24
2022-10-10T13:47:01.575Z,24.99
2022-10-10T13:49:29.759Z,25.07
2022-10-10T13:52:21.555Z,24.57
2022-10-10T13:54:49.222Z,24.76
2022-10-10T13:57:25.533Z,24.33
2022-10-10T14:00:23.100Z,24.90
2022-10-10T14:02:50.707Z,24.78
2022-10-10T14:05:29.198Z,24.45
2022-10-10T14:07:57.362Z,24.40
2022-10-10T14:10:27.396Z,24.66
2022-10-10T14:13:00.091Z,24.60
2022-10-10T14:15:56.991Z,23.94
2022-10-10T14:18:25.737Z,22.86
2022-10-10T14:20:56.522Z,23.79
2022-10-10T14:23:23.343Z,23.61
2022-10-10T14:25:50.556Z,24.03
2022-10-10T14:28:29.734Z,24.04
2022-10-10T14:30:57.057Z,23.77
2022-10-10T14:33:26.209Z,23.95
2022-10-10T14:35:56.077Z,24.22
2022-10-10T14:38:25.699Z,24.31
2022-10-10T14:40:54.564Z,24.16
2022-10-10T14:43:22.622Z,23.63
2022-10-10T14:45:52.889Z,24.05
2022-10-10T14:48:19.916Z,23.73
2022-10-10T14:50:48.498Z,23.98
2022-10-10T14:53:16.108Z,23.71
2022-10-10T14:55:43.766Z,23.89
2022-10-10T14:58:21.614Z,23.56
2022-10-10T15:00:51.742Z,23.55
2022-10-10T15:03:18.862Z,23.58
2022-10-10T15:05:45.822Z,23.52
2022-10-10T15:08:18.349Z,23.88
2022-10-10T15:10:46.504Z,23.73
2022-10-10T15:13:15.909Z,23.73
2022-10-10T15:15:43.635Z,23.67
2022-10-10T15:18:32.118Z,23.27
2022-10-10T15:20:57.402Z,22.88
2022-10-10T15:23:24.148Z,23.02
2022-10-10T15:25:50.869Z,22.37
2022-10-10T15:28:17.838Z,22.62
2022-10-10T15:30:46.077Z,22.99
2022-10-10T15:33:12.900Z,22.68
2022-10-10T15:35:56.921Z,22.92
2022-10-10T15:38:27.345Z,22.96
2022-10-10T15:41:06.523Z,23.07
2022-10-10T15:43:47.212Z,22.72
2022-10-10T15:46:14.231Z,22.87
2022-10-10T15:48:40.901Z,22.48
2022-10-10T15:51:08.628Z,22.72
2022-10-10T15:53:35.947Z,22.61
2022-10-10T15:58:59.479Z,22.32
2022-10-10T15:59:17.787Z,22.82
2022-10-10T16:01:27.348Z,22.54
2022-10-10T16:03:54.936Z,22.52
2022-10-10T16:06:25.403Z,22.44
2022-10-10T16:09:10.137Z,22.32
2022-10-10T16:11:40.127Z,22.24
2022-10-10T16:14:06.854Z,22.27
2022-10-10T16:16:33.976Z,22.39
2022-10-10T16:19:00.719Z,21.57
2022-10-10T16:21:27.769Z,21.84
2022-10-10T16:23:57.925Z,22.29
2022-10-10T16:26:32.939Z,22.35
2022-10-10T16:29:01.883Z,22.06
2022-10-10T16:31:29.831Z,21.68
2022-10-10T16:33:58.351Z,21.65
2022-10-10T16:36:28.042Z,21.98
2022-10-10T16:38:57.411Z,22.09
2022-10-10T16:41:47.039Z,22.29
2022-10-10T16:44:15.510Z,22.23
2022-10-10T16:46:42.491Z,22.16
2022-10-10T16:49:11.655Z,22.33
2022-10-10T16:51:38.646Z,22.26
2022-10-10T16:54:06.465Z,22.18
2022-10-10T16:56:34.692Z,22.18
2022-10-10T16:59:04.650Z,22.07
2022-10-10T17:01:31.694Z,22.05
2022-10-10T17:04:00.332Z,22.04
2022-10-10T17:06:34.125Z,21.87
2022-10-10T17:09:02.941Z,21.83
2022-10-10T17:11:29.807Z,21.54
2022-10-10T17:13:56.686Z,21.40
2022-10-10T17:19:12.934Z,21.68
2022-10-10T17:21:39.883Z,21.82
2022-10-10T17:24:06.969Z,21.86
2022-10-10T17:26:33.756Z,21.68
2022-10-10T17:29:00.615Z,21.68
2022-10-10T17:31:27.926Z,21.64
2022-10-10T17:33:57.205Z,21.39
2022-10-10T17:36:27.601Z,21.39
2022-10-10T17:39:01.664Z,21.14
2022-10-10T17:41:28.929Z,21.03
2022-10-10T17:43:56.101Z,21.15
2022-10-10T17:46:41.495Z,21.17
2022-10-10T17:49:11.117Z,21.31
2022-10-10T17:51:39.778Z,21.34
2022-10-10T17:54:09.916Z,20.86
2022-10-10T17:56:37.063Z,21.23
2022-10-10T17:59:06.416Z,21.45
2022-10-10T18:01:35.683Z,21.15
2022-10-10T18:04:02.565Z,21.39
2022-10-10T18:06:29.731Z,20.91
2022-10-10T18:08:57.431Z,21.33
2022-10-10T18:11:28.102Z,21.55
2022-10-10T18:14:00.239Z,21.36
2022-10-10T18:16:30.147Z,21.21
2022-10-10T18:18:58.227Z,21.37
2022-10-10T18:21:25.109Z,21.43
2022-10-10T18:23:52.109Z,21.45
2022-10-10T18:26:21.689Z,21.44
2022-10-10T18:28:49.133Z,21.34
2022-10-10T18:31:20.491Z,21.30
2022-10-10T18:33:48.064Z,21.24
2022-10-10T18:36:18.280Z,21.14
2022-10-10T18:38:45.549Z,21.03
2022-10-10T18:41:15.926Z,21.17
2022-10-10T18:43:44.636Z,21.12
2022-10-10T18:46:15.074Z,21.01
2022-10-10T18:48:43.137Z,21.05
2022-10-10T18:51:19.761Z,20.94
2022-10-10T18:53:46.757Z,20.73
2022-10-10T18:56:18.069Z,20.81
2022-10-10T18:58:44.908Z,20.93
2022-10-10T19:01:14.326Z,20.97
2022-10-10T19:03:43.102Z,20.77
2022-10-10T19:06:13.095Z,20.25
2022-10-10T19:08:40.867Z,20.44
2022-10-10T19:11:09.192Z,20.47
2022-10-10T19:13:36.013Z,20.47
2022-10-10T19:16:04.569Z,20.63
2022-10-10T19:18:31.499Z,20.64
2022-10-10T19:21:05.662Z,20.71
2022-10-10T19:23:33.829Z,20.38
2022-10-10T19:26:05.644Z,20.67
2022-10-10T19:28:32.954Z,20.56
2022-10-10T19:31:07.512Z,20.06
2022-10-10T19:33:34.710Z,20.36
2022-10-10T19:36:03.338Z,20.21
2022-10-10T19:38:34.062Z,20.36
2022-10-10T19:41:01.101Z,20.46
2022-10-10T19:43:28.185Z,20.33
2022-10-10T19:45:55.218Z,20.78
2022-10-10T19:48:26.032Z,20.78
2022-10-10T19:50:56.045Z,20.60
2022-10-10T19:53:23.937Z,20.63
2022-10-10T19:55:58.334Z,20.66
2022-10-10T19:58:25.658Z,20.37
2022-10-10T20:00:52.355Z,20.36
2022-10-10T20:03:19.506Z,20.35
2022-10-10T20:05:46.307Z,20.05
2022-10-10T20:08:13.382Z,20.30
2022-10-10T20:10:41.563Z,20.41
2022-10-10T20:13:12.468Z,20.39
2022-10-10T20:15:48.894Z,20.08
2022-10-10T20:18:18.282Z,19.74
2022-10-10T20:20:48.863Z,20.05
2022-10-10T20:23:18.407Z,19.49
2022-10-10T20:25:45.859Z,20.13
2022-10-10T20:28:14.347Z,19.98
2022-10-10T20:30:45.635Z,19.67
2022-10-10T20:33:12.608Z,19.71
2022-10-10T20:35:39.448Z,19.39
2022-10-10T20:38:10.608Z,19.66
2022-10-10T20:40:38.958Z,19.86
2022-10-10T20:43:06.192Z,19.72
2022-10-10T20:45:35.797Z,19.69
2022-10-10T20:48:03.428Z,19.23
2022-10-10T20:50:30.279Z,19.42
2022-10-10T20:52:57.191Z,19.28
2022-10-10T20:55:23.932Z,19.76
2022-10-10T20:57:50.719Z,19.44
2022-10-10T21:00:17.899Z,19.80
2022-10-10T21:02:44.898Z,19.77
2022-10-10T21:05:11.627Z,19.55
2022-10-10T21:07:38.431Z,19.56
2022-10-10T21:10:05.624Z,19.50
2022-10-10T21:12:32.467Z,19.63
2022-10-10T21:15:02.380Z,19.81
2022-10-10T21:17:29.885Z,19.87
2022-10-10T21:19:56.794Z,19.64
2022-10-10T21:22:23.938Z,19.56
2022-10-10T21:24:50.956Z,19.72
2022-10-10T21:27:17.798Z,19.56
2022-10-10T21:29:44.448Z,19.58
2022-10-10T21:32:11.280Z,19.44
2022-10-10T21:34:38.146Z,19.35
2022-10-10T21:37:05.095Z,19.54
2022-10-10T21:39:32.205Z,18.91
2022-10-10T21:41:59.003Z,19.45
2022-10-10T21:44:25.934Z,19.58
2022-10-10T21:46:52.768Z,19.41
2022-10-10T21:49:19.491Z,19.06
2022-10-10T21:51:46.266Z,18.44
2022-10-10T21:54:13.275Z,18.90
2022-10-10T21:56:41.575Z,19.08
2022-10-10T21:59:08.555Z,19.32
2022-10-10T22:01:37.501Z,18.98
2022-10-10T22:04:05.179Z,19.09
2022-10-10T22:06:32.113Z,19.00
2022-10-10T22:09:01.144Z,18.90
2022-10-10T22:11:30.179Z,19.06
2022-10-10T22:13:57.483Z,19.00
2022-10-10T22:16:24.580Z,18.98
2022-10-10T22:18:54.420Z,18.84
2022-10-10T22:21:21.535Z,19.08
2022-10-10T22:23:49.083Z,18.56
2022-10-10T22:26:17.003Z,18.83
2022-10-10T22:28:44.818Z,18.88
2022-10-10T22:31:14.446Z,18.90
2022-10-10T22:33:41.224Z,19.06
2022-10-10T22:36:09.261Z,19.22
2022-10-10T22:38:41.776Z,19.01
2022-10-10T22:41:09.360Z,18.81
2022-10-10T22:43:36.198Z,18.92
2022-10-10T22:46:04.019Z,19.04
2022-10-10T22:48:30.959Z,19.16
2022-10-10T22:51:03.211Z,19.36
2022-10-10T22:53:30.438Z,19.38
2022-10-10T22:55:57.248Z,19.41
2022-10-10T22:58:24.592Z,19.25
2022-10-10T23:00:52.079Z,19.38
2022-10-10T23:03:19.040Z,19.45
2022-10-10T23:05:46.420Z,19.11
2022-10-10T23:08:13.744Z,19.25
2022-10-10T23:10:40.634Z,18.70
2022-10-10T23:13:07.526Z,19.01
2022-10-10T23:15:34.280Z,19.03
2022-10-10T23:18:01.185Z,18.99
2022-10-10T23:20:28.008Z,19.00
2022-10-10T23:22:55.029Z,19.07
2022-10-10T23:25:22.172Z,19.20
2022-10-10T23:27:49.748Z,19.23
2022-10-10T23:30:16.744Z,19.11
2022-10-10T23:32:43.693Z,19.07
2022-10-10T23:35:10.864Z,19.30
2022-10-10T23:37:37.745Z,19.19
2022-10-10T23:40:05.366Z,19.14
2022-10-10T23:42:33.141Z,19.33
2022-10-10T23:44:59.930Z,19.40
2022-10-10T23:47:27.177Z,19.02
2022-10-10T23:49:54.049Z,19.03
2022-10-10T23:52:21.118Z,19.32
2022-10-10T23:54:47.911Z,19.02
2022-10-10T23:57:15.775Z,19.46
2022-10-10T23:59:43.801Z,19.39
